Terminal Aerodrome Forecast
Issued by NWS

Home | Current Version | Previous Version | Text Only | Print | Product List | Glossary On
Versions: 1 2 3 4 5 6 7 8 9 10 11 12 13 14 15 16 17 18 19 20 21
193
FTUS43 KDLH 251041 AAA
TAFHYR
TAF AMD
KHYR 251041Z 2511/2606 16007KT P6SM VCSH OVC007 WS020/18042KT
      TEMPO 2511/2512 3SM -RA BR BKN006 OVC022
     FM251600 20012G20KT P6SM SCT025 BKN035
     FM252300 23013G22KT P6SM VCSH SCT040
     FM260300 23007KT 5SM -SHRA SCT010 BKN026=

USA.gov is the U.S. government's official web portal to all federal, state and local government web resources and services.